createdAt,value
2022-12-20T00:03:28.518Z,-1.55
2022-12-20T00:08:32.533Z,-1.32
2022-12-20T00:13:37.573Z,-1.62
2022-12-20T00:18:42.754Z,-1.30
2022-12-20T00:23:46.363Z,-1.39
2022-12-20T00:28:51.394Z,-1.49
2022-12-20T00:33:56.431Z,-1.54
2022-12-20T00:39:01.571Z,-1.62
2022-12-20T00:44:06.866Z,-1.66
2022-12-20T00:49:10.480Z,-1.74
2022-12-20T00:54:13.944Z,-1.72
2022-12-20T00:59:18.693Z,-1.72
2022-12-20T01:04:21.835Z,-1.56
2022-12-20T01:09:25.440Z,-1.88
2022-12-20T01:14:30.330Z,-1.87
2022-12-20T01:19:33.942Z,-2.05
2022-12-20T01:24:37.395Z,-2.00
2022-12-20T01:29:42.413Z,-1.89
2022-12-20T01:34:45.892Z,-1.96
2022-12-20T01:39:49.612Z,-1.91
2022-12-20T01:44:58.965Z,-2.07
2022-12-20T01:50:05.132Z,-2.07
2022-12-20T01:55:13.964Z,-2.06
2022-12-20T02:00:20.028Z,-2.48
2022-12-20T02:05:25.141Z,-2.44
2022-12-20T02:10:36.713Z,-2.63
2022-12-20T02:15:51.554Z,-2.77
2022-12-20T02:21:21.249Z,-2.93
2022-12-20T02:26:43.417Z,-3.06
2022-12-20T02:31:53.805Z,-3.19
2022-12-20T02:36:57.754Z,-3.32
2022-12-20T02:42:06.029Z,-3.23
2022-12-20T02:47:15.491Z,-3.20
2022-12-20T02:52:23.596Z,-3.47
2022-12-20T02:57:33.904Z,-3.66
2022-12-20T03:02:53.585Z,-3.90
2022-12-20T03:07:57.592Z,-3.96
2022-12-20T03:13:00.921Z,-4.24
2022-12-20T03:18:06.097Z,-4.38
2022-12-20T03:23:09.578Z,-4.58
2022-12-20T03:28:13.220Z,-4.73
2022-12-20T03:33:18.443Z,-4.73
2022-12-20T03:38:22.177Z,-4.87
2022-12-20T03:43:25.533Z,-4.79
2022-12-20T03:48:30.537Z,-5.07
2022-12-20T03:53:34.343Z,-5.15
2022-12-20T03:58:37.971Z,-5.44
2022-12-20T04:03:42.976Z,-5.14
2022-12-20T04:08:47.101Z,-5.23
2022-12-20T04:13:51.903Z,-5.18
2022-12-20T04:18:57.076Z,-5.09
2022-12-20T04:24:01.705Z,-5.09
2022-12-20T04:29:05.112Z,-5.08
2022-12-20T04:34:10.075Z,-5.22
2022-12-20T04:39:13.608Z,-5.41
2022-12-20T04:44:17.138Z,-5.52
2022-12-20T04:49:22.110Z,-5.79
2022-12-20T04:54:28.043Z,-5.90
2022-12-20T04:59:31.790Z,-5.91
2022-12-20T05:04:37.661Z,-5.82
2022-12-20T05:09:41.350Z,-5.74
2022-12-20T05:14:44.818Z,-5.54
2022-12-20T05:19:49.731Z,-5.52
2022-12-20T05:25:10.241Z,-5.74
2022-12-20T05:30:14.556Z,-5.72
2022-12-20T05:35:19.919Z,-5.71
2022-12-20T05:40:23.643Z,-5.63
2022-12-20T05:45:27.337Z,-5.69
2022-12-20T05:50:32.270Z,-5.68
2022-12-20T05:55:36.084Z,-5.67
2022-12-20T06:00:40.584Z,-5.55
2022-12-20T06:05:45.799Z,-5.58
2022-12-20T06:10:49.768Z,-5.56
2022-12-20T06:15:53.882Z,-5.50
2022-12-20T06:20:58.723Z,-5.44
2022-12-20T06:26:04.611Z,-5.36
2022-12-20T06:31:07.972Z,-5.40
2022-12-20T06:36:13.160Z,-5.39
2022-12-20T06:41:16.667Z,-5.35
2022-12-20T06:46:20.200Z,-5.19
2022-12-20T06:51:25.268Z,-4.89
2022-12-20T06:56:28.794Z,-5.00
2022-12-20T07:01:32.342Z,-4.90
2022-12-20T07:06:37.279Z,-4.44
2022-12-20T07:11:40.873Z,-3.92
2022-12-20T07:16:45.039Z,-1.68
2022-12-20T07:21:49.816Z,1.63
2022-12-20T07:26:53.270Z,3.58
2022-12-20T07:31:56.620Z,5.58
2022-12-20T07:37:01.560Z,8.02
2022-12-20T07:42:04.939Z,8.88
2022-12-20T07:47:08.795Z,9.41
2022-12-20T07:52:16.032Z,10.49
2022-12-20T07:57:26.737Z,10.17
2022-12-20T08:02:34.904Z,10.18
2022-12-20T08:07:42.213Z,10.26
2022-12-20T08:12:47.625Z,11.86
2022-12-20T08:17:51.063Z,12.52
2022-12-20T08:22:55.820Z,12.27
2022-12-20T08:28:01.923Z,12.40
2022-12-20T08:33:05.863Z,12.61
2022-12-20T08:38:10.699Z,11.24
2022-12-20T08:43:14.339Z,8.34
2022-12-20T08:48:17.687Z,7.29
2022-12-20T08:53:22.482Z,6.26
2022-12-20T08:58:25.848Z,5.29
2022-12-20T09:03:32.512Z,3.71
2022-12-20T09:08:38.465Z,2.11
2022-12-20T09:13:44.338Z,1.28
2022-12-20T09:18:50.602Z,0.15
2022-12-20T09:23:56.531Z,0.12
2022-12-20T09:29:02.290Z,-0.93
2022-12-20T09:34:05.940Z,-1.06
2022-12-20T09:39:12.222Z,-1.30
2022-12-20T09:44:20.660Z,-1.68
2022-12-20T09:49:29.520Z,-1.95
2022-12-20T09:54:42.237Z,-2.15
2022-12-20T09:59:49.826Z,-2.55
2022-12-20T10:04:55.693Z,-2.81
2022-12-20T10:10:20.903Z,-3.19
2022-12-20T10:15:31.713Z,-3.38
2022-12-20T10:20:56.846Z,-3.61
2022-12-20T10:26:01.302Z,-3.08
2022-12-20T10:31:08.486Z,-3.06
2022-12-20T10:36:23.597Z,-3.01
2022-12-20T10:41:30.165Z,-2.87
2022-12-20T10:46:39.053Z,-2.97
2022-12-20T10:51:54.173Z,-3.20
2022-12-20T10:57:00.978Z,-3.11
2022-12-20T11:02:18.383Z,-3.50
2022-12-20T11:07:27.193Z,-3.60
2022-12-20T11:12:32.433Z,-3.54
2022-12-20T11:17:38.977Z,-3.80
2022-12-20T11:22:52.390Z,-3.96
2022-12-20T11:28:15.132Z,-4.07
2022-12-20T11:33:42.844Z,-3.90
2022-12-20T11:39:00.429Z,-3.90
2022-12-20T11:44:25.455Z,-3.97
2022-12-20T11:49:51.770Z,-4.34
2022-12-20T11:55:07.649Z,-4.36
2022-12-20T12:00:16.327Z,-4.54
2022-12-20T12:05:24.988Z,-4.67
2022-12-20T12:10:33.683Z,-4.72
2022-12-20T12:15:49.427Z,-4.37
2022-12-20T12:21:03.530Z,-4.44
2022-12-20T12:26:14.041Z,-4.20
2022-12-20T12:31:23.296Z,-4.28
2022-12-20T12:36:52.036Z,-4.32
2022-12-20T12:42:27.626Z,-4.61
2022-12-20T12:47:40.152Z,-4.74
2022-12-20T12:52:47.661Z,-5.03
2022-12-20T12:57:58.760Z,-4.97
2022-12-20T13:03:16.077Z,-4.96
2022-12-20T13:08:19.937Z,-5.43
2022-12-20T13:13:24.882Z,-5.20
2022-12-20T13:18:30.787Z,-5.29
2022-12-20T13:23:34.372Z,-5.47
2022-12-20T13:28:45.673Z,-5.36
2022-12-20T13:33:51.816Z,-5.47
2022-12-20T13:39:00.289Z,-5.47
2022-12-20T13:44:25.423Z,-5.47
2022-12-20T13:49:33.710Z,-5.50
2022-12-20T13:54:42.409Z,-5.61
2022-12-20T13:59:48.756Z,-5.51
2022-12-20T14:05:00.229Z,-5.53
2022-12-20T14:10:06.271Z,-5.58
2022-12-20T14:15:23.550Z,-5.41
2022-12-20T14:20:33.154Z,-5.61
2022-12-20T14:25:43.280Z,-5.56
2022-12-20T14:30:47.055Z,-5.81
2022-12-20T14:35:52.508Z,-5.70
2022-12-20T14:40:56.108Z,-5.78
2022-12-20T14:46:20.423Z,-5.78
2022-12-20T14:51:25.797Z,-5.87
2022-12-20T14:56:32.215Z,-6.07
2022-12-20T15:01:43.413Z,-6.21
2022-12-20T15:06:49.740Z,-6.29
2022-12-20T15:11:55.405Z,-6.40
2022-12-20T15:16:58.779Z,-6.63
2022-12-20T15:22:03.984Z,-6.81
2022-12-20T15:27:13.871Z,-6.88
2022-12-20T15:32:24.179Z,-7.05
2022-12-20T15:37:29.139Z,-7.14
2022-12-20T15:42:32.550Z,-7.22
2022-12-20T15:47:35.896Z,-7.33
2022-12-20T15:52:40.872Z,-7.33
2022-12-20T15:57:44.551Z,-7.38
2022-12-20T16:02:50.345Z,-7.31
2022-12-20T16:07:55.466Z,-7.48
2022-12-20T16:12:58.838Z,-7.36
2022-12-20T16:18:02.278Z,-7.39
2022-12-20T16:23:09.099Z,-7.36
2022-12-20T16:28:12.698Z,-7.55
2022-12-20T16:33:21.902Z,-7.40
2022-12-20T16:38:26.861Z,-7.54
2022-12-20T16:43:35.304Z,-7.60
2022-12-20T16:48:42.410Z,-7.60
2022-12-20T16:54:17.120Z,-7.71
2022-12-20T16:59:20.718Z,-7.79
2022-12-20T17:04:26.993Z,-7.85
2022-12-20T17:09:31.806Z,-7.73
2022-12-20T17:14:35.163Z,-7.73
2022-12-20T17:19:38.659Z,-7.81
2022-12-20T17:24:43.542Z,-7.74
2022-12-20T17:29:46.903Z,-7.89
2022-12-20T17:34:50.965Z,-7.92
2022-12-20T17:39:55.865Z,-7.89
2022-12-20T17:44:59.536Z,-7.92
2022-12-20T17:50:02.894Z,-7.92
2022-12-20T17:55:09.384Z,-7.80
2022-12-20T18:00:22.054Z,-7.83
2022-12-20T18:05:26.398Z,-8.07
2022-12-20T18:10:31.493Z,-8.20
2022-12-20T18:15:34.941Z,-8.22
2022-12-20T18:20:38.290Z,-8.44
2022-12-20T18:25:43.338Z,-8.42
2022-12-20T18:30:46.817Z,-8.61
2022-12-20T18:35:50.377Z,-8.54
2022-12-20T18:40:55.267Z,-8.47
2022-12-20T18:46:03.953Z,-8.67
2022-12-20T18:51:08.305Z,-8.61
2022-12-20T18:56:15.453Z,-8.55
2022-12-20T19:01:20.452Z,-8.52
2022-12-20T19:06:25.196Z,-8.82
2022-12-20T19:11:30.503Z,-8.96
2022-12-20T19:16:34.419Z,-9.09
2022-12-20T19:21:39.659Z,-9.09
2022-12-20T19:26:45.853Z,-8.91
2022-12-20T19:31:49.534Z,-9.09
2022-12-20T19:36:53.519Z,-8.95
2022-12-20T19:42:22.864Z,-8.97
2022-12-20T19:47:23.687Z,-8.92
2022-12-20T19:52:28.913Z,-8.94
2022-12-20T19:57:34.062Z,-8.94
2022-12-20T20:02:37.643Z,-9.23
2022-12-20T20:07:41.262Z,-9.46
2022-12-20T20:12:46.319Z,-9.22
2022-12-20T20:17:49.678Z,-9.23
2022-12-20T20:22:53.410Z,-9.18
2022-12-20T20:27:58.241Z,-8.90
2022-12-20T20:33:01.624Z,-8.93
2022-12-20T20:38:05.313Z,-8.92
2022-12-20T20:43:10.326Z,-9.00
2022-12-20T20:48:14.405Z,-9.25
2022-12-20T20:53:17.729Z,-9.18
2022-12-20T20:58:22.756Z,-9.15
2022-12-20T21:03:27.040Z,-8.95
2022-12-20T21:08:30.559Z,-8.66
2022-12-20T21:13:35.629Z,-8.37
2022-12-20T21:18:39.145Z,-8.23
2022-12-20T21:23:46.372Z,-7.97
2022-12-20T21:28:52.020Z,-7.77
2022-12-20T21:33:56.845Z,-7.64
2022-12-20T21:39:00.621Z,-7.54
2022-12-20T21:44:05.420Z,-7.48
2022-12-20T21:49:08.765Z,-7.67
2022-12-20T21:54:12.386Z,-7.71
2022-12-20T21:59:17.438Z,-7.47
2022-12-20T22:04:20.823Z,-7.21
2022-12-20T22:09:24.224Z,-6.87
2022-12-20T22:14:29.407Z,-6.75
2022-12-20T22:19:33.015Z,-6.78
2022-12-20T22:24:37.383Z,-6.71
2022-12-20T22:29:41.875Z,-6.59
2022-12-20T22:34:45.384Z,-6.49
2022-12-20T22:39:49.372Z,-6.39
2022-12-20T22:44:54.346Z,-6.42
2022-12-20T22:49:57.888Z,-6.21
2022-12-20T22:55:01.543Z,-5.98
2022-12-20T23:00:13.259Z,-5.80
2022-12-20T23:05:16.949Z,-5.98
2022-12-20T23:10:34.359Z,-5.91
2022-12-20T23:15:41.758Z,-5.88
2022-12-20T23:21:08.180Z,-5.79
2022-12-20T23:26:12.426Z,-5.91
2022-12-20T23:31:17.668Z,-5.77
2022-12-20T23:36:21.182Z,-5.75
2022-12-20T23:41:24.834Z,-5.62
2022-12-20T23:46:29.853Z,-5.53
2022-12-20T23:51:34.724Z,-5.48
2022-12-20T23:56:38.258Z,-5.42
